KDLF

Laughlin AFB Airport

Del Rio, Texas, USA
METAR KDLF 141256Z 13012KT 10SM BKN023 BKN130 BKN160 BKN180 24/22 A2994 RMK AO2A CIG 023V130 BKN023 V SCT SLP127 T02380217
Observed Flight Rules
Aug-14 @ 12:56 UTC (47 minutes ago) Marginal Visual Flight Rules
Wind Visibility Clouds
130° at 12 knots 10 miles
  • Broken at 2,300' AGL
  • Broken at 13,000' AGL
  • Broken at 16,000' AGL
  • Broken at 18,000' AGL
Temperatures Readings
Current 24°C / 75°F
Dewpoint 22°C / 72°F
Humidity 89%
Altimeter 29.94" Hg
Pressure 1012.7 hPa
Elevation 330
METAR KDLF 141256Z 13012KT 10SM BKN023 BKN130 BKN160 BKN180 24/22 A2994 RMK AO2A CIG 023V130 BKN023 V SCT SLP127 T02380217
Observed Flight Rules
Aug-14 @ 12:56 UTC
(47 minutes ago)
MVFR
Wind Visibility
130° at 12 knots 10 miles
Clouds
  • Broken at 2,300' AGL
  • Broken at 13,000' AGL
  • Broken at 16,000' AGL
  • Broken at 18,000' AGL
Temperature Dewpoint
24°C / 75°F 22°C / 72°F
Humidity Altimeter Pressure
89% 29.94" Hg 1012.7 hPa